sensor_id;sensor_type;location;lat;lon;timestamp;P1;durP1;ratioP1;P2;durP2;ratioP2
66927;SDS011;59882;45.624;11.698;2022-11-21T00:00:44;29.00;;;18.80;;
66927;SDS011;59882;45.624;11.698;2022-11-21T00:03:11;25.98;;;17.85;;
66927;SDS011;59882;45.624;11.698;2022-11-21T00:05:38;25.92;;;18.27;;
66927;SDS011;59882;45.624;11.698;2022-11-21T00:08:11;26.63;;;16.23;;
66927;SDS011;59882;45.624;11.698;2022-11-21T00:10:38;28.07;;;18.50;;
66927;SDS011;59882;45.624;11.698;2022-11-21T00:13:04;25.42;;;16.23;;
66927;SDS011;59882;45.624;11.698;2022-11-21T00:15:31;28.65;;;17.80;;
66927;SDS011;59882;45.624;11.698;2022-11-21T00:17:57;29.33;;;17.88;;
66927;SDS011;59882;45.624;11.698;2022-11-21T00:20:25;26.58;;;17.27;;
66927;SDS011;59882;45.624;11.698;2022-11-21T00:22:51;33.63;;;18.50;;
66927;SDS011;59882;45.624;11.698;2022-11-21T00:25:16;29.83;;;17.87;;
66927;SDS011;59882;45.624;11.698;2022-11-21T00:27:42;29.70;;;18.17;;
66927;SDS011;59882;45.624;11.698;2022-11-21T00:30:09;28.23;;;17.90;;
66927;SDS011;59882;45.624;11.698;2022-11-21T00:32:35;26.35;;;18.48;;
66927;SDS011;59882;45.624;11.698;2022-11-21T00:35:01;29.70;;;18.63;;
66927;SDS011;59882;45.624;11.698;2022-11-21T00:37:26;29.03;;;17.73;;
66927;SDS011;59882;45.624;11.698;2022-11-21T00:39:52;29.43;;;17.83;;
66927;SDS011;59882;45.624;11.698;2022-11-21T00:42:18;29.63;;;18.93;;
66927;SDS011;59882;45.624;11.698;2022-11-21T00:44:43;29.30;;;18.37;;
66927;SDS011;59882;45.624;11.698;2022-11-21T00:47:09;28.38;;;17.98;;
66927;SDS011;59882;45.624;11.698;2022-11-21T00:49:34;26.83;;;17.40;;
66927;SDS011;59882;45.624;11.698;2022-11-21T00:52:00;28.23;;;18.10;;
66927;SDS011;59882;45.624;11.698;2022-11-21T00:54:25;27.80;;;18.83;;
66927;SDS011;59882;45.624;11.698;2022-11-21T00:56:51;25.73;;;18.07;;
66927;SDS011;59882;45.624;11.698;2022-11-21T00:59:17;28.05;;;18.15;;
66927;SDS011;59882;45.624;11.698;2022-11-21T01:01:42;26.27;;;17.70;;
66927;SDS011;59882;45.624;11.698;2022-11-21T01:04:08;27.38;;;16.40;;
66927;SDS011;59882;45.624;11.698;2022-11-21T01:06:35;25.53;;;17.80;;
66927;SDS011;59882;45.624;11.698;2022-11-21T01:09:02;27.25;;;17.55;;
66927;SDS011;59882;45.624;11.698;2022-11-21T01:11:28;23.92;;;16.55;;
66927;SDS011;59882;45.624;11.698;2022-11-21T01:13:54;28.00;;;18.27;;
66927;SDS011;59882;45.624;11.698;2022-11-21T01:16:22;30.23;;;17.80;;
66927;SDS011;59882;45.624;11.698;2022-11-21T01:18:49;26.20;;;16.55;;
66927;SDS011;59882;45.624;11.698;2022-11-21T01:23:45;24.73;;;16.83;;
66927;SDS011;59882;45.624;11.698;2022-11-21T01:26:15;25.90;;;16.60;;
66927;SDS011;59882;45.624;11.698;2022-11-21T01:28:42;22.02;;;15.77;;
66927;SDS011;59882;45.624;11.698;2022-11-21T01:31:08;23.50;;;15.97;;
66927;SDS011;59882;45.624;11.698;2022-11-21T01:33:38;24.92;;;16.10;;
66927;SDS011;59882;45.624;11.698;2022-11-21T01:38:38;23.80;;;15.70;;
66927;SDS011;59882;45.624;11.698;2022-11-21T01:41:06;26.35;;;15.95;;
66927;SDS011;59882;45.624;11.698;2022-11-21T01:43:32;21.37;;;15.23;;
66927;SDS011;59882;45.624;11.698;2022-11-21T01:45:59;24.25;;;15.77;;
66927;SDS011;59882;45.624;11.698;2022-11-21T01:48:28;23.73;;;15.25;;
66927;SDS011;59882;45.624;11.698;2022-11-21T01:51:08;24.45;;;15.10;;
66927;SDS011;59882;45.624;11.698;2022-11-21T01:53:50;22.37;;;14.57;;
66927;SDS011;59882;45.624;11.698;2022-11-21T01:56:39;23.52;;;14.68;;
66927;SDS011;59882;45.624;11.698;2022-11-21T01:59:17;22.20;;;14.48;;
66927;SDS011;59882;45.624;11.698;2022-11-21T02:01:48;24.65;;;14.50;;
66927;SDS011;59882;45.624;11.698;2022-11-21T02:04:16;23.27;;;15.07;;
66927;SDS011;59882;45.624;11.698;2022-11-21T02:06:43;22.37;;;15.10;;
66927;SDS011;59882;45.624;11.698;2022-11-21T02:09:08;22.13;;;14.10;;
66927;SDS011;59882;45.624;11.698;2022-11-21T02:11:39;25.67;;;14.85;;
66927;SDS011;59882;45.624;11.698;2022-11-21T02:14:19;24.17;;;14.83;;
66927;SDS011;59882;45.624;11.698;2022-11-21T02:16:45;21.60;;;13.30;;
66927;SDS011;59882;45.624;11.698;2022-11-21T02:19:14;21.25;;;14.23;;
66927;SDS011;59882;45.624;11.698;2022-11-21T02:21:55;22.77;;;14.43;;
66927;SDS011;59882;45.624;11.698;2022-11-21T02:24:32;21.77;;;14.30;;
66927;SDS011;59882;45.624;11.698;2022-11-21T02:27:02;23.63;;;15.48;;
66927;SDS011;59882;45.624;11.698;2022-11-21T02:29:28;23.80;;;15.85;;
66927;SDS011;59882;45.624;11.698;2022-11-21T02:31:57;20.48;;;14.70;;
66927;SDS011;59882;45.624;11.698;2022-11-21T02:34:24;21.13;;;14.70;;
66927;SDS011;59882;45.624;11.698;2022-11-21T02:36:49;21.67;;;14.05;;
66927;SDS011;59882;45.624;11.698;2022-11-21T02:39:18;21.43;;;14.57;;
66927;SDS011;59882;45.624;11.698;2022-11-21T02:41:55;22.33;;;14.52;;
66927;SDS011;59882;45.624;11.698;2022-11-21T02:44:28;23.38;;;14.70;;
66927;SDS011;59882;45.624;11.698;2022-11-21T02:47:02;22.42;;;15.35;;
66927;SDS011;59882;45.624;11.698;2022-11-21T02:49:33;21.20;;;14.67;;
66927;SDS011;59882;45.624;11.698;2022-11-21T02:52:06;22.60;;;14.50;;
66927;SDS011;59882;45.624;11.698;2022-11-21T02:54:31;20.90;;;14.67;;
66927;SDS011;59882;45.624;11.698;2022-11-21T02:56:57;23.27;;;14.30;;
66927;SDS011;59882;45.624;11.698;2022-11-21T02:59:22;22.40;;;14.47;;
66927;SDS011;59882;45.624;11.698;2022-11-21T03:01:48;20.67;;;13.97;;
66927;SDS011;59882;45.624;11.698;2022-11-21T03:04:14;22.60;;;14.30;;
66927;SDS011;59882;45.624;11.698;2022-11-21T03:06:39;18.40;;;12.90;;
66927;SDS011;59882;45.624;11.698;2022-11-21T03:09:05;19.37;;;13.67;;
66927;SDS011;59882;45.624;11.698;2022-11-21T03:11:30;20.90;;;14.30;;
66927;SDS011;59882;45.624;11.698;2022-11-21T03:13:56;20.27;;;13.23;;
66927;SDS011;59882;45.624;11.698;2022-11-21T03:16:22;23.83;;;13.30;;
66927;SDS011;59882;45.624;11.698;2022-11-21T03:18:47;21.40;;;12.97;;
66927;SDS011;59882;45.624;11.698;2022-11-21T03:21:13;18.98;;;13.73;;
66927;SDS011;59882;45.624;11.698;2022-11-21T03:23:38;22.07;;;13.93;;
66927;SDS011;59882;45.624;11.698;2022-11-21T03:26:04;17.73;;;13.00;;
66927;SDS011;59882;45.624;11.698;2022-11-21T03:28:30;19.70;;;12.70;;
66927;SDS011;59882;45.624;11.698;2022-11-21T03:30:55;19.33;;;13.13;;
66927;SDS011;59882;45.624;11.698;2022-11-21T03:33:21;20.00;;;12.88;;
66927;SDS011;59882;45.624;11.698;2022-11-21T03:35:46;20.33;;;12.67;;
66927;SDS011;59882;45.624;11.698;2022-11-21T03:38:12;18.63;;;13.10;;
66927;SDS011;59882;45.624;11.698;2022-11-21T03:40:37;22.00;;;12.77;;
66927;SDS011;59882;45.624;11.698;2022-11-21T03:43:04;17.00;;;11.93;;
66927;SDS011;59882;45.624;11.698;2022-11-21T03:45:30;20.88;;;12.38;;
66927;SDS011;59882;45.624;11.698;2022-11-21T03:47:56;19.88;;;12.57;;
66927;SDS011;59882;45.624;11.698;2022-11-21T03:50:21;17.67;;;12.50;;
66927;SDS011;59882;45.624;11.698;2022-11-21T03:52:47;19.07;;;12.83;;
66927;SDS011;59882;45.624;11.698;2022-11-21T03:55:12;22.48;;;12.63;;
66927;SDS011;59882;45.624;11.698;2022-11-21T03:57:39;25.85;;;14.00;;
66927;SDS011;59882;45.624;11.698;2022-11-21T04:00:05;18.80;;;12.47;;
66927;SDS011;59882;45.624;11.698;2022-11-21T04:02:31;17.15;;;11.85;;
66927;SDS011;59882;45.624;11.698;2022-11-21T04:04:56;21.97;;;14.00;;
66927;SDS011;59882;45.624;11.698;2022-11-21T04:07:22;19.65;;;13.55;;
66927;SDS011;59882;45.624;11.698;2022-11-21T04:09:47;17.33;;;11.47;;
66927;SDS011;59882;45.624;11.698;2022-11-21T04:12:13;18.83;;;11.57;;
66927;SDS011;59882;45.624;11.698;2022-11-21T04:14:39;17.33;;;11.53;;
66927;SDS011;59882;45.624;11.698;2022-11-21T04:17:04;16.83;;;11.93;;
66927;SDS011;59882;45.624;11.698;2022-11-21T04:19:30;19.73;;;11.85;;
66927;SDS011;59882;45.624;11.698;2022-11-21T04:21:55;20.37;;;13.27;;
66927;SDS011;59882;45.624;11.698;2022-11-21T04:24:21;18.40;;;12.10;;
66927;SDS011;59882;45.624;11.698;2022-11-21T04:26:47;18.87;;;12.33;;
66927;SDS011;59882;45.624;11.698;2022-11-21T04:29:12;18.95;;;12.35;;
66927;SDS011;59882;45.624;11.698;2022-11-21T04:31:38;18.87;;;12.80;;
66927;SDS011;59882;45.624;11.698;2022-11-21T04:34:04;17.77;;;12.43;;
66927;SDS011;59882;45.624;11.698;2022-11-21T04:36:29;17.95;;;12.27;;
66927;SDS011;59882;45.624;11.698;2022-11-21T04:38:55;19.67;;;11.93;;
66927;SDS011;59882;45.624;11.698;2022-11-21T04:41:21;22.63;;;13.07;;
66927;SDS011;59882;45.624;11.698;2022-11-21T04:43:46;20.13;;;12.27;;
66927;SDS011;59882;45.624;11.698;2022-11-21T04:46:12;18.63;;;11.95;;
66927;SDS011;59882;45.624;11.698;2022-11-21T04:48:37;20.20;;;13.33;;
66927;SDS011;59882;45.624;11.698;2022-11-21T04:51:03;22.65;;;13.70;;
66927;SDS011;59882;45.624;11.698;2022-11-21T04:53:29;19.73;;;12.37;;
66927;SDS011;59882;45.624;11.698;2022-11-21T04:55:54;17.67;;;12.40;;
66927;SDS011;59882;45.624;11.698;2022-11-21T04:58:20;17.38;;;11.40;;
66927;SDS011;59882;45.624;11.698;2022-11-21T05:00:45;22.07;;;12.57;;
66927;SDS011;59882;45.624;11.698;2022-11-21T05:03:11;24.15;;;20.25;;
66927;SDS011;59882;45.624;11.698;2022-11-21T05:05:37;28.47;;;21.43;;
66927;SDS011;59882;45.624;11.698;2022-11-21T05:08:02;19.63;;;15.90;;
66927;SDS011;59882;45.624;11.698;2022-11-21T05:10:28;19.13;;;14.25;;
66927;SDS011;59882;45.624;11.698;2022-11-21T05:12:57;21.70;;;15.07;;
66927;SDS011;59882;45.624;11.698;2022-11-21T05:15:42;23.50;;;14.32;;
66927;SDS011;59882;45.624;11.698;2022-11-21T05:18:08;19.50;;;12.63;;
66927;SDS011;59882;45.624;11.698;2022-11-21T05:20:34;17.52;;;12.02;;
66927;SDS011;59882;45.624;11.698;2022-11-21T05:23:00;17.27;;;11.17;;
66927;SDS011;59882;45.624;11.698;2022-11-21T05:25:25;16.93;;;11.33;;
66927;SDS011;59882;45.624;11.698;2022-11-21T05:27:54;16.45;;;11.45;;
66927;SDS011;59882;45.624;11.698;2022-11-21T05:30:20;15.05;;;10.40;;
66927;SDS011;59882;45.624;11.698;2022-11-21T05:32:46;18.60;;;11.50;;
66927;SDS011;59882;45.624;11.698;2022-11-21T05:35:11;20.17;;;12.33;;
66927;SDS011;59882;45.624;11.698;2022-11-21T05:37:37;20.75;;;12.35;;
66927;SDS011;59882;45.624;11.698;2022-11-21T05:40:03;16.47;;;11.20;;
66927;SDS011;59882;45.624;11.698;2022-11-21T05:42:29;14.93;;;10.75;;
66927;SDS011;59882;45.624;11.698;2022-11-21T05:45:13;18.77;;;10.07;;
66927;SDS011;59882;45.624;11.698;2022-11-21T05:47:40;16.00;;;9.83;;
66927;SDS011;59882;45.624;11.698;2022-11-21T05:50:06;15.15;;;9.82;;
66927;SDS011;59882;45.624;11.698;2022-11-21T05:52:32;16.02;;;11.30;;
66927;SDS011;59882;45.624;11.698;2022-11-21T05:54:57;19.60;;;10.63;;
66927;SDS011;59882;45.624;11.698;2022-11-21T05:57:23;21.67;;;11.90;;
66927;SDS011;59882;45.624;11.698;2022-11-21T05:59:48;17.77;;;11.97;;
66927;SDS011;59882;45.624;11.698;2022-11-21T06:02:14;17.23;;;11.97;;
66927;SDS011;59882;45.624;11.698;2022-11-21T06:04:58;16.70;;;11.07;;
66927;SDS011;59882;45.624;11.698;2022-11-21T06:07:24;15.17;;;11.30;;
66927;SDS011;59882;45.624;11.698;2022-11-21T06:09:49;15.60;;;10.93;;
66927;SDS011;59882;45.624;11.698;2022-11-21T06:12:15;25.53;;;13.20;;
66927;SDS011;59882;45.624;11.698;2022-11-21T06:14:41;17.55;;;11.27;;
66927;SDS011;59882;45.624;11.698;2022-11-21T06:17:06;19.27;;;11.40;;
66927;SDS011;59882;45.624;11.698;2022-11-21T06:19:32;16.07;;;10.30;;
66927;SDS011;59882;45.624;11.698;2022-11-21T06:21:57;15.93;;;9.93;;
66927;SDS011;59882;45.624;11.698;2022-11-21T06:24:23;20.57;;;10.40;;
66927;SDS011;59882;45.624;11.698;2022-11-21T06:26:48;17.08;;;11.65;;
66927;SDS011;59882;45.624;11.698;2022-11-21T06:29:14;15.17;;;10.93;;
66927;SDS011;59882;45.624;11.698;2022-11-21T06:31:40;16.27;;;10.07;;
66927;SDS011;59882;45.624;11.698;2022-11-21T06:34:06;21.27;;;11.33;;
66927;SDS011;59882;45.624;11.698;2022-11-21T06:36:32;15.15;;;10.50;;
66927;SDS011;59882;45.624;11.698;2022-11-21T06:38:57;18.80;;;11.63;;
66927;SDS011;59882;45.624;11.698;2022-11-21T06:41:24;17.58;;;11.73;;
66927;SDS011;59882;45.624;11.698;2022-11-21T06:43:50;24.87;;;12.17;;
66927;SDS011;59882;45.624;11.698;2022-11-21T06:46:16;19.50;;;11.70;;
66927;SDS011;59882;45.624;11.698;2022-11-21T06:48:42;15.85;;;10.77;;
66927;SDS011;59882;45.624;11.698;2022-11-21T06:51:12;16.17;;;10.37;;
66927;SDS011;59882;45.624;11.698;2022-11-21T06:53:45;18.63;;;10.82;;
66927;SDS011;59882;45.624;11.698;2022-11-21T06:56:13;18.10;;;11.38;;
66927;SDS011;59882;45.624;11.698;2022-11-21T06:58:39;21.48;;;11.25;;
66927;SDS011;59882;45.624;11.698;2022-11-21T07:01:08;18.80;;;10.77;;
66927;SDS011;59882;45.624;11.698;2022-11-21T07:03:35;20.35;;;12.50;;
66927;SDS011;59882;45.624;11.698;2022-11-21T07:06:00;18.73;;;11.82;;
66927;SDS011;59882;45.624;11.698;2022-11-21T07:08:27;19.57;;;11.60;;
66927;SDS011;59882;45.624;11.698;2022-11-21T07:10:54;19.35;;;12.05;;
66927;SDS011;59882;45.624;11.698;2022-11-21T07:13:20;18.17;;;11.80;;
66927;SDS011;59882;45.624;11.698;2022-11-21T07:15:46;20.27;;;11.68;;
66927;SDS011;59882;45.624;11.698;2022-11-21T07:18:13;20.87;;;11.47;;
66927;SDS011;59882;45.624;11.698;2022-11-21T07:20:40;21.30;;;12.20;;
66927;SDS011;59882;45.624;11.698;2022-11-21T07:23:05;61.25;;;28.27;;
66927;SDS011;59882;45.624;11.698;2022-11-21T07:25:32;29.52;;;16.92;;
66927;SDS011;59882;45.624;11.698;2022-11-21T07:27:58;27.23;;;16.10;;
66927;SDS011;59882;45.624;11.698;2022-11-21T07:30:25;30.88;;;18.13;;
66927;SDS011;59882;45.624;11.698;2022-11-21T07:32:55;33.15;;;19.40;;
66927;SDS011;59882;45.624;11.698;2022-11-21T07:35:24;33.87;;;15.97;;
66927;SDS011;59882;45.624;11.698;2022-11-21T07:37:50;23.60;;;13.10;;
66927;SDS011;59882;45.624;11.698;2022-11-21T07:40:16;21.08;;;13.13;;
66927;SDS011;59882;45.624;11.698;2022-11-21T07:42:42;31.40;;;15.77;;
66927;SDS011;59882;45.624;11.698;2022-11-21T07:45:08;28.15;;;16.77;;
66927;SDS011;59882;45.624;11.698;2022-11-21T07:47:34;84.22;;;40.60;;
66927;SDS011;59882;45.624;11.698;2022-11-21T07:49:59;57.53;;;28.17;;
66927;SDS011;59882;45.624;11.698;2022-11-21T07:52:25;35.13;;;20.25;;
66927;SDS011;59882;45.624;11.698;2022-11-21T07:54:54;31.37;;;17.47;;
66927;SDS011;59882;45.624;11.698;2022-11-21T07:57:20;26.63;;;15.55;;
66927;SDS011;59882;45.624;11.698;2022-11-21T07:59:45;23.02;;;14.60;;
66927;SDS011;59882;45.624;11.698;2022-11-21T08:02:17;26.13;;;14.30;;
66927;SDS011;59882;45.624;11.698;2022-11-21T08:04:45;26.98;;;14.23;;
66927;SDS011;59882;45.624;11.698;2022-11-21T08:07:11;27.45;;;16.00;;
66927;SDS011;59882;45.624;11.698;2022-11-21T08:09:37;27.80;;;16.93;;
66927;SDS011;59882;45.624;11.698;2022-11-21T08:12:03;28.13;;;16.83;;
66927;SDS011;59882;45.624;11.698;2022-11-21T08:14:29;30.90;;;18.00;;
66927;SDS011;59882;45.624;11.698;2022-11-21T08:16:54;34.78;;;18.55;;
66927;SDS011;59882;45.624;11.698;2022-11-21T08:19:20;32.73;;;20.37;;
66927;SDS011;59882;45.624;11.698;2022-11-21T08:21:45;31.42;;;21.33;;
66927;SDS011;59882;45.624;11.698;2022-11-21T08:24:11;30.23;;;18.77;;
66927;SDS011;59882;45.624;11.698;2022-11-21T08:26:39;30.35;;;19.83;;
66927;SDS011;59882;45.624;11.698;2022-11-21T08:29:05;27.38;;;17.58;;
66927;SDS011;59882;45.624;11.698;2022-11-21T08:31:31;32.03;;;15.83;;
66927;SDS011;59882;45.624;11.698;2022-11-21T08:33:56;27.58;;;16.73;;
66927;SDS011;59882;45.624;11.698;2022-11-21T08:36:23;23.95;;;14.70;;
66927;SDS011;59882;45.624;11.698;2022-11-21T08:38:49;25.88;;;15.23;;
66927;SDS011;59882;45.624;11.698;2022-11-21T08:41:14;33.43;;;19.20;;
66927;SDS011;59882;45.624;11.698;2022-11-21T08:43:58;37.58;;;21.02;;
66927;SDS011;59882;45.624;11.698;2022-11-21T08:46:24;46.07;;;23.37;;
66927;SDS011;59882;45.624;11.698;2022-11-21T08:48:53;33.90;;;19.48;;
66927;SDS011;59882;45.624;11.698;2022-11-21T08:51:19;86.70;;;41.35;;
66927;SDS011;59882;45.624;11.698;2022-11-21T08:53:45;38.53;;;19.45;;
66927;SDS011;59882;45.624;11.698;2022-11-21T08:56:11;23.73;;;13.63;;
66927;SDS011;59882;45.624;11.698;2022-11-21T08:58:38;26.27;;;14.50;;
66927;SDS011;59882;45.624;11.698;2022-11-21T09:01:03;51.30;;;26.70;;
66927;SDS011;59882;45.624;11.698;2022-11-21T09:03:29;74.57;;;35.90;;
66927;SDS011;59882;45.624;11.698;2022-11-21T09:05:55;48.35;;;24.63;;
66927;SDS011;59882;45.624;11.698;2022-11-21T09:08:21;33.40;;;17.97;;
66927;SDS011;59882;45.624;11.698;2022-11-21T09:10:47;32.08;;;16.38;;
66927;SDS011;59882;45.624;11.698;2022-11-21T09:13:12;25.13;;;14.60;;
66927;SDS011;59882;45.624;11.698;2022-11-21T09:15:38;26.77;;;15.75;;
66927;SDS011;59882;45.624;11.698;2022-11-21T09:18:22;21.67;;;13.27;;
66927;SDS011;59882;45.624;11.698;2022-11-21T09:20:48;20.67;;;13.20;;
66927;SDS011;59882;45.624;11.698;2022-11-21T09:23:14;20.53;;;12.70;;
66927;SDS011;59882;45.624;11.698;2022-11-21T09:25:40;20.08;;;12.25;;
66927;SDS011;59882;45.624;11.698;2022-11-21T09:28:08;21.92;;;11.52;;
66927;SDS011;59882;45.624;11.698;2022-11-21T09:30:35;18.30;;;11.23;;
66927;SDS011;59882;45.624;11.698;2022-11-21T09:33:05;19.42;;;11.68;;
66927;SDS011;59882;45.624;11.698;2022-11-21T09:35:32;15.50;;;10.60;;
66927;SDS011;59882;45.624;11.698;2022-11-21T09:37:58;20.05;;;11.70;;
66927;SDS011;59882;45.624;11.698;2022-11-21T09:40:24;16.52;;;10.20;;
66927;SDS011;59882;45.624;11.698;2022-11-21T09:48:12;15.70;;;8.65;;
66927;SDS011;59882;45.624;11.698;2022-11-21T09:50:55;13.35;;;8.23;;
66927;SDS011;59882;45.624;11.698;2022-11-21T09:53:32;20.77;;;10.93;;
66927;SDS011;59882;45.624;11.698;2022-11-21T09:58:41;20.00;;;10.00;;
66927;SDS011;59882;45.624;11.698;2022-11-21T10:01:11;15.55;;;10.82;;
66927;SDS011;59882;45.624;11.698;2022-11-21T10:03:43;20.13;;;11.15;;
66927;SDS011;59882;45.624;11.698;2022-11-21T10:06:21;17.58;;;10.48;;
66927;SDS011;59882;45.624;11.698;2022-11-21T10:20:18;19.02;;;11.70;;
66927;SDS011;59882;45.624;11.698;2022-11-21T10:25:36;36.10;;;19.38;;
66927;SDS011;59882;45.624;11.698;2022-11-21T10:30:31;23.33;;;15.57;;
66927;SDS011;59882;45.624;11.698;2022-11-21T10:33:02;24.90;;;15.73;;
66927;SDS011;59882;45.624;11.698;2022-11-21T10:35:43;26.60;;;14.80;;
66927;SDS011;59882;45.624;11.698;2022-11-21T10:46:26;28.88;;;16.90;;
66927;SDS011;59882;45.624;11.698;2022-11-21T10:48:54;28.90;;;18.03;;
66927;SDS011;59882;45.624;11.698;2022-11-21T10:54:12;37.92;;;24.13;;
66927;SDS011;59882;45.624;11.698;2022-11-21T10:59:37;36.20;;;23.20;;
66927;SDS011;59882;45.624;11.698;2022-11-21T11:04:38;33.97;;;21.13;;
66927;SDS011;59882;45.624;11.698;2022-11-21T11:07:23;33.47;;;21.50;;
66927;SDS011;59882;45.624;11.698;2022-11-21T11:09:53;30.03;;;19.27;;
66927;SDS011;59882;45.624;11.698;2022-11-21T11:12:47;33.03;;;20.30;;
66927;SDS011;59882;45.624;11.698;2022-11-21T11:15:32;29.67;;;18.85;;
66927;SDS011;59882;45.624;11.698;2022-11-21T11:17:59;30.48;;;18.75;;
66927;SDS011;59882;45.624;11.698;2022-11-21T11:20:38;30.88;;;19.02;;
66927;SDS011;59882;45.624;11.698;2022-11-21T11:25:58;30.58;;;19.25;;
66927;SDS011;59882;45.624;11.698;2022-11-21T11:28:25;28.48;;;19.13;;
66927;SDS011;59882;45.624;11.698;2022-11-21T11:30:57;27.63;;;17.83;;
66927;SDS011;59882;45.624;11.698;2022-11-21T11:33:39;26.10;;;16.67;;
66927;SDS011;59882;45.624;11.698;2022-11-21T11:36:30;27.67;;;17.05;;
66927;SDS011;59882;45.624;11.698;2022-11-21T11:39:04;32.35;;;19.75;;
66927;SDS011;59882;45.624;11.698;2022-11-21T11:41:51;32.72;;;20.75;;
66927;SDS011;59882;45.624;11.698;2022-11-21T11:47:55;31.57;;;20.50;;
66927;SDS011;59882;45.624;11.698;2022-11-21T11:50:25;30.73;;;18.38;;
66927;SDS011;59882;45.624;11.698;2022-11-21T11:55:42;29.67;;;20.05;;
66927;SDS011;59882;45.624;11.698;2022-11-21T11:58:26;25.48;;;18.30;;
66927;SDS011;59882;45.624;11.698;2022-11-21T12:00:58;27.87;;;19.23;;
66927;SDS011;59882;45.624;11.698;2022-11-21T12:08:46;25.85;;;17.88;;
66927;SDS011;59882;45.624;11.698;2022-11-21T12:11:26;24.60;;;17.30;;
66927;SDS011;59882;45.624;11.698;2022-11-21T12:17:39;25.00;;;20.05;;
66927;SDS011;59882;45.624;11.698;2022-11-21T12:22:58;24.77;;;17.88;;
66927;SDS011;59882;45.624;11.698;2022-11-21T12:25:26;22.70;;;17.42;;
66927;SDS011;59882;45.624;11.698;2022-11-21T12:27:54;23.10;;;18.43;;
66927;SDS011;59882;45.624;11.698;2022-11-21T12:41:18;21.43;;;16.57;;
66927;SDS011;59882;45.624;11.698;2022-11-21T12:46:58;23.15;;;19.20;;
66927;SDS011;59882;45.624;11.698;2022-11-21T12:50:02;22.27;;;17.47;;
66927;SDS011;59882;45.624;11.698;2022-11-21T12:53:03;20.33;;;16.75;;
66927;SDS011;59882;45.624;11.698;2022-11-21T12:56:01;23.00;;;17.52;;
66927;SDS011;59882;45.624;11.698;2022-11-21T12:58:36;22.10;;;18.63;;
66927;SDS011;59882;45.624;11.698;2022-11-21T13:03:57;23.27;;;17.30;;
66927;SDS011;59882;45.624;11.698;2022-11-21T13:06:28;25.30;;;17.38;;
66927;SDS011;59882;45.624;11.698;2022-11-21T13:08:58;24.40;;;17.67;;
66927;SDS011;59882;45.624;11.698;2022-11-21T13:17:17;21.63;;;17.07;;
66927;SDS011;59882;45.624;11.698;2022-11-21T13:22:48;21.98;;;16.52;;
66927;SDS011;59882;45.624;11.698;2022-11-21T13:30:46;22.93;;;16.80;;
66927;SDS011;59882;45.624;11.698;2022-11-21T13:38:25;21.50;;;15.53;;
66927;SDS011;59882;45.624;11.698;2022-11-21T13:40:51;21.60;;;15.90;;
66927;SDS011;59882;45.624;11.698;2022-11-21T13:43:35;22.80;;;15.55;;
66927;SDS011;59882;45.624;11.698;2022-11-21T13:46:01;22.37;;;15.93;;
66927;SDS011;59882;45.624;11.698;2022-11-21T13:56:30;20.73;;;13.50;;
66927;SDS011;59882;45.624;11.698;2022-11-21T14:10:43;21.03;;;14.20;;
66927;SDS011;59882;45.624;11.698;2022-11-21T14:13:21;18.85;;;13.77;;
66927;SDS011;59882;45.624;11.698;2022-11-21T14:18:45;19.67;;;12.43;;
66927;SDS011;59882;45.624;11.698;2022-11-21T14:21:19;20.75;;;12.70;;
66927;SDS011;59882;45.624;11.698;2022-11-21T14:23:57;19.53;;;13.10;;
66927;SDS011;59882;45.624;11.698;2022-11-21T14:26:29;20.63;;;13.68;;
66927;SDS011;59882;45.624;11.698;2022-11-21T14:29:15;18.73;;;12.15;;
66927;SDS011;59882;45.624;11.698;2022-11-21T14:31:50;19.13;;;11.90;;
66927;SDS011;59882;45.624;11.698;2022-11-21T14:34:26;21.00;;;13.60;;
66927;SDS011;59882;45.624;11.698;2022-11-21T14:36:53;21.10;;;14.20;;
66927;SDS011;59882;45.624;11.698;2022-11-21T14:39:21;20.60;;;15.10;;
66927;SDS011;59882;45.624;11.698;2022-11-21T14:41:51;23.05;;;15.30;;
66927;SDS011;59882;45.624;11.698;2022-11-21T14:44:20;21.05;;;14.27;;
66927;SDS011;59882;45.624;11.698;2022-11-21T14:46:46;22.42;;;15.98;;
66927;SDS011;59882;45.624;11.698;2022-11-21T14:51:48;24.85;;;16.42;;
66927;SDS011;59882;45.624;11.698;2022-11-21T14:54:17;24.52;;;16.00;;
66927;SDS011;59882;45.624;11.698;2022-11-21T14:56:46;27.20;;;16.85;;
66927;SDS011;59882;45.624;11.698;2022-11-21T14:59:23;27.27;;;17.40;;
66927;SDS011;59882;45.624;11.698;2022-11-21T15:02:01;30.73;;;18.83;;
66927;SDS011;59882;45.624;11.698;2022-11-21T15:04:32;31.83;;;17.98;;
66927;SDS011;59882;45.624;11.698;2022-11-21T15:07:00;28.55;;;18.65;;
66927;SDS011;59882;45.624;11.698;2022-11-21T15:09:26;28.20;;;17.30;;
66927;SDS011;59882;45.624;11.698;2022-11-21T15:11:57;24.35;;;17.33;;
66927;SDS011;59882;45.624;11.698;2022-11-21T15:14:38;28.80;;;17.77;;
66927;SDS011;59882;45.624;11.698;2022-11-21T15:17:26;28.05;;;18.58;;
66927;SDS011;59882;45.624;11.698;2022-11-21T15:22:55;30.65;;;18.55;;
66927;SDS011;59882;45.624;11.698;2022-11-21T15:25:23;28.58;;;18.75;;
66927;SDS011;59882;45.624;11.698;2022-11-21T15:28:13;29.73;;;19.07;;
66927;SDS011;59882;45.624;11.698;2022-11-21T15:30:40;35.05;;;21.10;;
66927;SDS011;59882;45.624;11.698;2022-11-21T15:33:13;31.98;;;21.98;;
66927;SDS011;59882;45.624;11.698;2022-11-21T15:35:49;32.83;;;22.25;;
66927;SDS011;59882;45.624;11.698;2022-11-21T15:46:27;41.70;;;25.40;;
66927;SDS011;59882;45.624;11.698;2022-11-21T15:48:55;38.17;;;24.13;;
66927;SDS011;59882;45.624;11.698;2022-11-21T15:51:26;36.63;;;24.97;;
66927;SDS011;59882;45.624;11.698;2022-11-21T15:53:58;59.75;;;24.67;;
66927;SDS011;59882;45.624;11.698;2022-11-21T15:56:24;35.03;;;22.73;;
66927;SDS011;59882;45.624;11.698;2022-11-21T15:58:50;37.78;;;23.40;;
66927;SDS011;59882;45.624;11.698;2022-11-21T16:01:20;41.43;;;25.47;;
66927;SDS011;59882;45.624;11.698;2022-11-21T16:03:52;40.80;;;25.75;;
66927;SDS011;59882;45.624;11.698;2022-11-21T16:06:20;42.97;;;26.20;;
66927;SDS011;59882;45.624;11.698;2022-11-21T16:08:46;45.42;;;29.10;;
66927;SDS011;59882;45.624;11.698;2022-11-21T16:11:16;48.90;;;29.47;;
66927;SDS011;59882;45.624;11.698;2022-11-21T16:13:52;40.28;;;26.27;;
66927;SDS011;59882;45.624;11.698;2022-11-21T16:16:20;42.58;;;28.05;;
66927;SDS011;59882;45.624;11.698;2022-11-21T16:18:47;48.00;;;28.80;;
66927;SDS011;59882;45.624;11.698;2022-11-21T16:21:12;43.35;;;29.23;;
66927;SDS011;59882;45.624;11.698;2022-11-21T16:23:38;47.75;;;30.00;;
66927;SDS011;59882;45.624;11.698;2022-11-21T16:26:05;48.63;;;28.97;;
66927;SDS011;59882;45.624;11.698;2022-11-21T16:28:31;46.53;;;29.33;;
66927;SDS011;59882;45.624;11.698;2022-11-21T16:30:57;57.10;;;36.60;;
66927;SDS011;59882;45.624;11.698;2022-11-21T16:33:24;63.00;;;38.08;;
66927;SDS011;59882;45.624;11.698;2022-11-21T16:35:50;58.17;;;35.40;;
66927;SDS011;59882;45.624;11.698;2022-11-21T16:38:20;56.53;;;34.20;;